createdAt,value
2023-05-10T00:00:54.918Z,17.61
2023-05-10T00:01:54.947Z,17.60
2023-05-10T00:02:55.020Z,17.59
2023-05-10T00:03:55.880Z,17.58
2023-05-10T00:04:54.949Z,17.57
2023-05-10T00:05:54.913Z,17.55
2023-05-10T00:06:54.881Z,17.54
2023-05-10T00:07:54.870Z,17.53
2023-05-10T00:08:55.792Z,17.52
2023-05-10T00:09:54.843Z,17.51
2023-05-10T00:10:54.786Z,17.50
2023-05-10T00:11:54.797Z,17.49
2023-05-10T00:12:54.892Z,17.49
2023-05-10T00:13:55.681Z,17.48
2023-05-10T00:14:54.803Z,17.47
2023-05-10T00:15:54.742Z,17.47
2023-05-10T00:16:54.933Z,17.46
2023-05-10T00:17:54.773Z,17.45
2023-05-10T00:18:54.719Z,17.44
2023-05-10T00:19:55.601Z,17.43
2023-05-10T00:20:54.671Z,17.42
2023-05-10T00:21:54.696Z,17.41
2023-05-10T00:22:54.708Z,17.39
2023-05-10T00:23:54.632Z,17.38
2023-05-10T00:24:54.640Z,17.37
2023-05-10T00:25:55.538Z,17.36
2023-05-10T00:26:54.714Z,17.35
2023-05-10T00:27:54.589Z,17.33
2023-05-10T00:28:54.565Z,17.32
2023-05-10T00:29:54.636Z,17.31
2023-05-10T00:30:55.468Z,17.30
2023-05-10T00:31:54.562Z,17.29
2023-05-10T00:32:54.530Z,17.28
2023-05-10T00:33:54.551Z,17.27
2023-05-10T00:34:54.513Z,17.26
2023-05-10T00:35:55.437Z,17.25
2023-05-10T00:36:54.589Z,17.24
2023-05-10T00:37:54.453Z,17.23
2023-05-10T00:38:54.458Z,17.22
2023-05-10T00:39:54.505Z,17.21
2023-05-10T00:40:54.435Z,17.19
2023-05-10T00:41:55.482Z,17.18
2023-05-10T00:42:54.393Z,17.16
2023-05-10T00:43:54.372Z,17.15
2023-05-10T00:44:54.484Z,17.13
2023-05-10T00:45:54.403Z,17.12
2023-05-10T00:46:54.351Z,17.11
2023-05-10T00:47:55.357Z,17.10
2023-05-10T00:48:54.304Z,17.09
2023-05-10T00:49:54.320Z,17.07
2023-05-10T00:50:54.305Z,17.06
2023-05-10T00:51:54.327Z,17.04
2023-05-10T00:52:55.175Z,17.03
2023-05-10T00:53:54.299Z,17.01
2023-05-10T00:54:54.235Z,17.00
2023-05-10T00:55:54.270Z,16.98
2023-05-10T00:56:54.215Z,16.97
2023-05-10T00:57:55.123Z,16.95
2023-05-10T00:58:54.167Z,16.94
2023-05-10T00:59:54.190Z,16.92
2023-05-10T01:00:54.137Z,16.91
2023-05-10T01:01:54.196Z,16.90
2023-05-10T01:02:54.224Z,16.89
2023-05-10T01:03:55.187Z,16.88
2023-05-10T01:04:54.133Z,16.88
2023-05-10T01:05:54.084Z,16.87
2023-05-10T01:06:54.078Z,16.86
2023-05-10T01:07:54.124Z,16.85
2023-05-10T01:08:55.041Z,16.84
2023-05-10T01:09:54.050Z,16.83
2023-05-10T01:10:54.034Z,16.82
2023-05-10T01:11:54.037Z,16.81
2023-05-10T01:12:54.007Z,16.81
2023-05-10T01:13:54.986Z,16.80
2023-05-10T01:14:53.988Z,16.79
2023-05-10T01:15:53.994Z,16.78
2023-05-10T01:16:53.973Z,16.78
2023-05-10T01:17:53.995Z,16.77
2023-05-10T01:18:53.964Z,16.76
2023-05-10T01:19:54.870Z,16.75
2023-05-10T01:20:55.599Z,16.74
2023-05-10T01:21:53.935Z,16.72
2023-05-10T01:22:53.920Z,16.71
2023-05-10T01:23:53.842Z,16.70
2023-05-10T01:24:54.788Z,16.68
2023-05-10T01:25:53.856Z,16.67
2023-05-10T01:26:53.812Z,16.66
2023-05-10T01:27:53.880Z,16.65
2023-05-10T01:28:53.791Z,16.63
2023-05-10T01:30:21.775Z,16.62
2023-05-10T01:30:55.820Z,16.60
2023-05-10T01:31:53.749Z,16.59
2023-05-10T01:32:53.843Z,16.57
2023-05-10T01:33:53.765Z,16.56
2023-05-10T01:34:53.766Z,16.55
2023-05-10T01:35:54.682Z,16.53
2023-05-10T01:36:53.713Z,16.52
2023-05-10T01:37:53.695Z,16.50
2023-05-10T01:38:53.708Z,16.49
2023-05-10T01:39:53.652Z,16.48
2023-05-10T01:40:53.643Z,16.47
2023-05-10T01:41:54.555Z,16.46
2023-05-10T01:42:53.632Z,16.45
2023-05-10T01:43:53.634Z,16.44
2023-05-10T01:44:53.607Z,16.43
2023-05-10T01:45:53.579Z,16.42
2023-05-10T01:46:54.529Z,16.41
2023-05-10T01:47:53.592Z,16.40
2023-05-10T01:48:53.543Z,16.40
2023-05-10T01:49:53.535Z,16.39
2023-05-10T01:50:53.500Z,16.39
2023-05-10T01:51:54.419Z,16.39
2023-05-10T01:52:53.523Z,16.38
2023-05-10T01:53:53.442Z,16.38
2023-05-10T01:54:53.484Z,16.37
2023-05-10T01:55:53.518Z,16.36
2023-05-10T01:56:53.427Z,16.35
2023-05-10T01:57:54.362Z,16.35
2023-05-10T01:58:53.396Z,16.34
2023-05-10T01:59:53.431Z,16.33
2023-05-10T02:00:53.511Z,16.32
2023-05-10T02:01:53.346Z,16.31
2023-05-10T02:02:53.388Z,16.30
2023-05-10T02:03:54.329Z,16.29
2023-05-10T02:04:53.361Z,16.27
2023-05-10T02:05:53.324Z,16.26
2023-05-10T02:06:53.311Z,16.25
2023-05-10T02:07:53.353Z,16.24
2023-05-10T02:08:53.289Z,16.22
2023-05-10T02:09:54.234Z,16.21
2023-05-10T02:10:53.345Z,16.19
2023-05-10T02:11:53.277Z,16.18
2023-05-10T02:12:53.287Z,16.16
2023-05-10T02:13:53.201Z,16.15
2023-05-10T02:14:54.210Z,16.14
2023-05-10T02:15:53.236Z,16.13
2023-05-10T02:16:53.221Z,16.12
2023-05-10T02:17:53.197Z,16.11
2023-05-10T02:18:53.180Z,16.11
2023-05-10T02:19:53.185Z,16.10
2023-05-10T02:20:54.039Z,16.09
2023-05-10T02:21:53.148Z,16.08
2023-05-10T02:22:53.108Z,16.07
2023-05-10T02:23:53.099Z,16.05
2023-05-10T02:24:53.123Z,16.04
2023-05-10T02:25:54.050Z,16.03
2023-05-10T02:26:53.031Z,16.02
2023-05-10T02:27:53.021Z,16.00
2023-05-10T02:28:53.026Z,15.99
2023-05-10T02:29:53.025Z,15.97
2023-05-10T02:30:53.001Z,15.95
2023-05-10T02:31:53.963Z,15.94
2023-05-10T02:32:53.012Z,15.92
2023-05-10T02:33:53.575Z,15.91
2023-05-10T02:34:53.069Z,15.89
2023-05-10T02:35:52.933Z,15.88
2023-05-10T02:36:53.827Z,15.87
2023-05-10T02:37:52.987Z,15.86
2023-05-10T02:38:52.921Z,15.85
2023-05-10T02:39:52.862Z,15.84
2023-05-10T02:40:52.888Z,15.83
2023-05-10T02:41:52.874Z,15.82
2023-05-10T02:42:53.772Z,15.81
2023-05-10T02:43:52.914Z,15.81
2023-05-10T02:44:52.831Z,15.80
2023-05-10T02:45:52.907Z,15.79
2023-05-10T02:46:52.778Z,15.78
2023-05-10T02:47:53.745Z,15.77
2023-05-10T02:48:52.754Z,15.77
2023-05-10T02:49:52.776Z,15.76
2023-05-10T02:50:52.771Z,15.75
2023-05-10T02:51:52.699Z,15.74
2023-05-10T02:52:53.348Z,15.73
2023-05-10T02:53:53.666Z,15.72
2023-05-10T02:54:52.706Z,15.71
2023-05-10T02:55:52.726Z,15.70
2023-05-10T02:56:52.637Z,15.69
2023-05-10T02:57:52.641Z,15.68
2023-05-10T02:58:52.637Z,15.67
2023-05-10T02:59:53.593Z,15.66
2023-05-10T03:00:52.598Z,15.65
2023-05-10T03:01:52.697Z,15.64
2023-05-10T03:02:52.700Z,15.64
2023-05-10T03:03:52.550Z,15.63
2023-05-10T03:04:52.539Z,15.63
2023-05-10T03:05:53.465Z,15.62
2023-05-10T03:06:52.756Z,15.62
2023-05-10T03:07:52.528Z,15.61
2023-05-10T03:08:52.492Z,15.60
2023-05-10T03:09:53.460Z,15.59
2023-05-10T03:10:53.449Z,15.58
2023-05-10T03:11:52.491Z,15.57
2023-05-10T03:12:52.496Z,15.56
2023-05-10T03:13:52.444Z,15.55
2023-05-10T03:14:52.551Z,15.54
2023-05-10T03:15:53.386Z,15.53
2023-05-10T03:16:52.445Z,15.53
2023-05-10T03:17:52.467Z,15.52
2023-05-10T03:18:52.373Z,15.51
2023-05-10T03:19:52.349Z,15.50
2023-05-10T03:20:52.396Z,15.50
2023-05-10T03:21:53.314Z,15.49
2023-05-10T03:22:52.312Z,15.48
2023-05-10T03:23:52.324Z,15.47
2023-05-10T03:24:52.315Z,15.47
2023-05-10T03:25:52.332Z,15.46
2023-05-10T03:26:52.289Z,15.45
2023-05-10T03:27:53.196Z,15.44
2023-05-10T03:28:52.266Z,15.43
2023-05-10T03:29:52.266Z,15.43
2023-05-10T03:30:52.202Z,15.42
2023-05-10T03:31:52.350Z,15.42
2023-05-10T03:32:52.216Z,15.42
2023-05-10T03:33:53.105Z,15.42
2023-05-10T03:34:52.171Z,15.42
2023-05-10T03:35:52.160Z,15.42
2023-05-10T03:36:52.224Z,15.42
2023-05-10T03:37:52.094Z,15.41
2023-05-10T03:38:52.145Z,15.41
2023-05-10T03:39:53.029Z,15.41
2023-05-10T03:40:52.238Z,15.41
2023-05-10T03:41:52.071Z,15.40
2023-05-10T03:42:52.065Z,15.40
2023-05-10T03:43:52.076Z,15.39
2023-05-10T03:44:52.036Z,15.39
2023-05-10T03:45:52.953Z,15.39
2023-05-10T03:46:52.032Z,15.38
2023-05-10T03:47:52.035Z,15.38
2023-05-10T03:48:52.010Z,15.38
2023-05-10T03:49:52.021Z,15.38
2023-05-10T03:50:52.869Z,15.37
2023-05-10T03:51:51.926Z,15.37
2023-05-10T03:52:54.577Z,15.37
2023-05-10T03:53:51.901Z,15.37
2023-05-10T03:54:52.081Z,15.38
2023-05-10T03:55:51.916Z,15.38
2023-05-10T03:56:52.869Z,15.38
2023-05-10T03:57:51.929Z,15.38
2023-05-10T03:58:51.869Z,15.38
2023-05-10T03:59:51.954Z,15.38
2023-05-10T04:00:51.827Z,15.38
2023-05-10T04:01:51.819Z,15.38
2023-05-10T04:02:52.823Z,15.38
2023-05-10T04:03:51.855Z,15.38
2023-05-10T04:04:51.763Z,15.38
2023-05-10T04:05:51.796Z,15.39
2023-05-10T04:06:51.759Z,15.39
2023-05-10T04:07:52.685Z,15.40
2023-05-10T04:08:51.751Z,15.40
2023-05-10T04:09:52.000Z,15.40
2023-05-10T04:10:51.704Z,15.40
2023-05-10T04:11:51.666Z,15.40
2023-05-10T04:12:52.699Z,15.41
2023-05-10T04:13:51.702Z,15.41
2023-05-10T04:14:51.710Z,15.41
2023-05-10T04:15:51.611Z,15.41
2023-05-10T04:16:51.712Z,15.41
2023-05-10T04:17:51.621Z,15.41
2023-05-10T04:18:52.616Z,15.41
2023-05-10T04:19:51.560Z,15.41
2023-05-10T04:20:51.578Z,15.42
2023-05-10T04:21:51.571Z,15.42
2023-05-10T04:22:51.527Z,15.42
2023-05-10T04:23:52.473Z,15.42
2023-05-10T04:24:51.539Z,15.42
2023-05-10T04:25:51.493Z,15.42
2023-05-10T04:26:51.592Z,15.42
2023-05-10T04:27:51.452Z,15.42
2023-05-10T04:28:51.560Z,15.42
2023-05-10T04:29:52.436Z,15.42
2023-05-10T04:30:51.436Z,15.42
2023-05-10T04:31:51.470Z,15.42
2023-05-10T04:32:51.458Z,15.43
2023-05-10T04:33:51.421Z,15.43
2023-05-10T04:34:51.397Z,15.43
2023-05-10T04:35:52.290Z,15.43
2023-05-10T04:36:51.392Z,15.43
2023-05-10T04:37:51.318Z,15.43
2023-05-10T04:38:51.362Z,15.43
2023-05-10T04:39:51.531Z,15.44
2023-05-10T04:40:51.300Z,15.44
2023-05-10T04:41:52.271Z,15.44
2023-05-10T04:42:51.308Z,15.45
2023-05-10T04:43:51.255Z,15.45
2023-05-10T04:44:51.307Z,15.46
2023-05-10T04:45:51.330Z,15.46
2023-05-10T04:46:51.384Z,15.47
2023-05-10T04:47:52.309Z,15.48
2023-05-10T04:48:51.363Z,15.50
2023-05-10T04:49:51.230Z,15.51
2023-05-10T04:50:51.210Z,15.52
2023-05-10T04:51:51.240Z,15.53
2023-05-10T04:52:52.280Z,15.54
2023-05-10T04:54:04.708Z,15.55
2023-05-10T04:54:52.690Z,15.55
2023-05-10T04:55:51.095Z,15.56
2023-05-10T04:56:51.105Z,15.57
2023-05-10T04:57:51.080Z,15.58
2023-05-10T04:58:52.040Z,15.58
2023-05-10T04:59:51.063Z,15.59
2023-05-10T05:00:51.032Z,15.60
2023-05-10T05:01:51.041Z,15.61
2023-05-10T05:02:51.115Z,15.62
2023-05-10T05:03:52.008Z,15.63
2023-05-10T05:04:51.002Z,15.64
2023-05-10T05:05:50.992Z,15.64
2023-05-10T05:06:53.655Z,15.65
2023-05-10T05:07:50.965Z,15.66
2023-05-10T05:08:51.901Z,15.66
2023-05-10T05:09:50.959Z,15.66
2023-05-10T05:10:50.937Z,15.67
2023-05-10T05:11:50.899Z,15.67
2023-05-10T05:12:50.905Z,15.67
2023-05-10T05:13:50.891Z,15.68
2023-05-10T05:14:51.802Z,15.68
2023-05-10T05:15:50.917Z,15.69
2023-05-10T05:16:50.806Z,15.70
2023-05-10T05:17:50.888Z,15.71
2023-05-10T05:18:50.838Z,15.72
2023-05-10T05:19:50.806Z,15.72
2023-05-10T05:20:51.740Z,15.73
2023-05-10T05:21:50.865Z,15.75
2023-05-10T05:22:50.776Z,15.76
2023-05-10T05:23:50.727Z,15.77
2023-05-10T05:24:50.732Z,15.78
2023-05-10T05:25:50.678Z,15.80
2023-05-10T05:26:51.649Z,15.81
2023-05-10T05:27:50.708Z,15.83
2023-05-10T05:28:50.683Z,15.84
2023-05-10T05:29:50.674Z,15.85
2023-05-10T05:30:50.663Z,15.86
2023-05-10T05:31:51.040Z,15.87
2023-05-10T05:32:51.753Z,15.88
2023-05-10T05:33:50.632Z,15.89
2023-05-10T05:34:50.617Z,15.89
2023-05-10T05:35:50.605Z,15.90
2023-05-10T05:36:50.602Z,15.91
2023-05-10T05:37:50.650Z,15.92
2023-05-10T05:38:51.496Z,15.93
2023-05-10T05:39:50.541Z,15.94
2023-05-10T05:40:50.599Z,15.95
2023-05-10T05:41:50.603Z,15.97
2023-05-10T05:42:50.541Z,15.98
2023-05-10T05:43:51.418Z,15.99
2023-05-10T05:44:50.492Z,16.00
2023-05-10T05:45:50.585Z,16.02
2023-05-10T05:46:50.461Z,16.03
2023-05-10T05:47:50.462Z,16.04
2023-05-10T05:48:50.493Z,16.05
2023-05-10T05:49:51.341Z,16.05
2023-05-10T05:50:50.424Z,16.06
2023-05-10T05:51:50.452Z,16.07
2023-05-10T05:52:50.371Z,16.08
2023-05-10T05:53:50.441Z,16.10
2023-05-10T05:54:51.291Z,16.11
2023-05-10T05:55:50.396Z,16.12
2023-05-10T05:56:50.405Z,16.13
2023-05-10T05:57:50.346Z,16.14
2023-05-10T05:58:50.294Z,16.16
2023-05-10T05:59:51.386Z,16.17
2023-05-10T06:00:50.359Z,16.19
2023-05-10T06:01:50.262Z,16.22
2023-05-10T06:02:50.416Z,16.24
2023-05-10T06:03:51.903Z,16.27
2023-05-10T06:04:51.227Z,16.29
2023-05-10T06:05:50.202Z,16.32
2023-05-10T06:06:50.214Z,16.35
2023-05-10T06:07:50.158Z,16.38
2023-05-10T06:08:50.862Z,16.40
2023-05-10T06:09:51.138Z,16.43
2023-05-10T06:10:50.150Z,16.45
2023-05-10T06:11:50.171Z,16.48
2023-05-10T06:12:50.167Z,16.50
2023-05-10T06:13:50.132Z,16.53
2023-05-10T06:14:51.039Z,16.57
2023-05-10T06:15:50.084Z,16.60
2023-05-10T06:16:50.111Z,16.64
2023-05-10T06:17:50.077Z,16.67
2023-05-10T06:18:50.096Z,16.71
2023-05-10T06:19:50.026Z,16.74
2023-05-10T06:20:51.053Z,16.77
2023-05-10T06:21:51.234Z,16.80
2023-05-10T06:22:49.994Z,16.82
2023-05-10T06:23:50.929Z,16.85
2023-05-10T06:24:49.957Z,16.86
2023-05-10T06:25:51.256Z,16.89
2023-05-10T06:26:49.979Z,16.91
2023-05-10T06:27:52.883Z,16.94
2023-05-10T06:28:49.885Z,16.97
2023-05-10T06:29:52.203Z,17.00
2023-05-10T06:30:51.359Z,17.03
2023-05-10T06:31:50.859Z,17.07
2023-05-10T06:32:49.873Z,17.11
2023-05-10T06:33:49.870Z,17.15
2023-05-10T06:34:49.820Z,17.18
2023-05-10T06:35:49.837Z,17.22
2023-05-10T06:36:49.793Z,17.26
2023-05-10T06:37:50.840Z,17.29
2023-05-10T06:38:49.827Z,17.33
2023-05-10T06:39:49.778Z,17.37
2023-05-10T06:40:49.801Z,17.41
2023-05-10T06:41:49.766Z,17.45
2023-05-10T06:42:50.663Z,17.49
2023-05-10T06:43:49.712Z,17.53
2023-05-10T06:44:49.796Z,17.57
2023-05-10T06:45:49.696Z,17.61
2023-05-10T06:46:49.683Z,17.65
2023-05-10T06:47:49.676Z,17.68
2023-05-10T06:48:50.567Z,17.73
2023-05-10T06:49:49.724Z,17.77
2023-05-10T06:50:49.616Z,17.81
2023-05-10T06:51:49.634Z,17.86
2023-05-10T06:52:51.175Z,17.90
2023-05-10T06:53:50.518Z,17.94
2023-05-10T06:54:49.657Z,17.99
2023-05-10T06:55:50.492Z,18.03
2023-05-10T06:56:49.555Z,18.08
2023-05-10T06:57:49.536Z,18.12
2023-05-10T06:58:49.600Z,18.17
2023-05-10T06:59:50.573Z,18.21
2023-05-10T07:00:49.527Z,18.26
2023-05-10T07:01:49.531Z,18.30
2023-05-10T07:02:50.447Z,18.35
2023-05-10T07:03:49.503Z,18.40
2023-05-10T07:04:49.564Z,18.45
2023-05-10T07:05:50.424Z,18.51
2023-05-10T07:06:49.443Z,18.56
2023-05-10T07:07:49.442Z,18.61
2023-05-10T07:08:49.442Z,18.66
2023-05-10T07:09:49.392Z,18.71
2023-05-10T07:10:50.335Z,18.75
2023-05-10T07:11:49.400Z,18.80
2023-05-10T07:12:49.429Z,18.85
2023-05-10T07:13:49.326Z,18.90
2023-05-10T07:14:49.279Z,18.95
2023-05-10T07:15:50.311Z,19.00
2023-05-10T07:16:50.243Z,19.06
2023-05-10T07:17:49.370Z,19.11
2023-05-10T07:18:49.339Z,19.16
2023-05-10T07:19:49.307Z,19.22
2023-05-10T07:20:49.221Z,19.27
2023-05-10T07:21:49.235Z,19.33
2023-05-10T07:22:50.210Z,19.39
2023-05-10T07:23:49.214Z,19.45
2023-05-10T07:24:49.243Z,19.51
2023-05-10T07:25:49.158Z,19.57
2023-05-10T07:26:49.143Z,19.64
2023-05-10T07:27:50.081Z,19.69
2023-05-10T07:28:49.121Z,19.75
2023-05-10T07:29:49.202Z,19.81
2023-05-10T07:30:49.153Z,19.86
2023-05-10T07:31:49.251Z,19.92
2023-05-10T07:32:49.227Z,19.98
2023-05-10T07:33:50.035Z,20.04
2023-05-10T07:34:49.156Z,20.11
2023-05-10T07:35:49.103Z,20.17
2023-05-10T07:36:49.012Z,20.24
2023-05-10T07:37:49.068Z,20.31
2023-05-10T07:38:49.954Z,20.38
2023-05-10T07:39:48.951Z,20.45
2023-05-10T07:40:49.963Z,20.52
2023-05-10T07:41:49.003Z,20.59
2023-05-10T07:42:48.973Z,20.67
2023-05-10T07:43:48.986Z,20.74
2023-05-10T07:44:49.841Z,20.82
2023-05-10T07:45:48.978Z,20.90
2023-05-10T07:46:48.930Z,20.98
2023-05-10T07:47:48.890Z,21.05
2023-05-10T07:48:48.916Z,21.12
2023-05-10T07:49:49.821Z,21.19
2023-05-10T07:50:49.097Z,21.25
2023-05-10T07:51:48.917Z,21.31
2023-05-10T07:52:48.844Z,21.38
2023-05-10T07:53:48.848Z,21.44
2023-05-10T07:54:49.754Z,21.49
2023-05-10T07:55:48.820Z,21.55
2023-05-10T07:56:48.728Z,21.61
2023-05-10T07:57:48.726Z,21.67
2023-05-10T07:58:48.772Z,21.73
2023-05-10T07:59:49.660Z,21.79
2023-05-10T08:00:48.691Z,21.86
2023-05-10T08:01:48.727Z,21.92
2023-05-10T08:02:48.792Z,21.98
2023-05-10T08:03:48.950Z,22.04
2023-05-10T08:04:49.626Z,22.11
2023-05-10T08:05:48.653Z,22.19
2023-05-10T08:06:48.878Z,22.27
2023-05-10T08:07:48.633Z,22.34
2023-05-10T08:08:48.637Z,22.42
2023-05-10T08:09:49.651Z,22.51
2023-05-10T08:10:48.654Z,22.59
2023-05-10T08:11:48.590Z,22.67
2023-05-10T08:12:48.544Z,22.76
2023-05-10T08:13:48.528Z,22.85
2023-05-10T08:14:48.560Z,22.94
2023-05-10T08:15:49.692Z,23.04
2023-05-10T08:16:49.454Z,23.12
2023-05-10T08:17:48.556Z,23.21
2023-05-10T08:18:48.578Z,23.29
2023-05-10T08:19:48.499Z,23.37
2023-05-10T08:20:48.447Z,23.45
2023-05-10T08:21:49.416Z,23.52
2023-05-10T08:22:50.010Z,23.60
2023-05-10T08:23:48.485Z,23.68
2023-05-10T08:24:48.524Z,23.76
2023-05-10T08:25:48.380Z,23.83
2023-05-10T08:26:48.386Z,23.91
2023-05-10T08:27:49.283Z,23.99
2023-05-10T08:28:48.347Z,24.07
2023-05-10T08:29:50.493Z,24.15
2023-05-10T08:30:48.356Z,24.24
2023-05-10T08:31:48.549Z,24.32
2023-05-10T08:32:48.386Z,24.39
2023-05-10T08:33:49.187Z,24.46
2023-05-10T08:34:48.237Z,24.52
2023-05-10T08:35:48.249Z,24.58
2023-05-10T08:36:48.307Z,24.64
2023-05-10T08:38:45.693Z,25.93
2023-05-10T08:39:46.648Z,25.49
2023-05-10T08:40:45.682Z,25.21
2023-05-10T08:41:45.686Z,25.05
2023-05-10T08:42:45.665Z,24.99
2023-05-10T08:43:45.653Z,24.99
2023-05-10T08:44:46.307Z,25.03
2023-05-10T08:45:46.559Z,25.10
2023-05-10T08:46:45.633Z,25.18
2023-05-10T08:47:45.656Z,25.26
2023-05-10T08:48:45.579Z,25.34
2023-05-10T08:49:45.551Z,25.41
2023-05-10T08:50:45.642Z,25.48
2023-05-10T08:51:46.435Z,25.55
2023-05-10T08:52:45.528Z,25.61
2023-05-10T08:53:45.512Z,25.68
2023-05-10T08:54:45.519Z,25.74
2023-05-10T08:55:45.485Z,25.80
2023-05-10T08:56:46.142Z,25.87
2023-05-10T08:57:46.424Z,25.93
2023-05-10T08:58:45.410Z,26.01
2023-05-10T08:59:45.457Z,26.10
2023-05-10T09:00:45.433Z,26.19
2023-05-10T09:01:45.399Z,26.30
2023-05-10T09:02:45.387Z,26.40
2023-05-10T09:03:45.426Z,26.49
2023-05-10T09:04:45.434Z,26.59
2023-05-10T09:05:45.341Z,26.67
2023-05-10T09:06:45.399Z,26.76
2023-05-10T09:07:45.323Z,26.85
2023-05-10T09:08:45.368Z,26.95
2023-05-10T09:09:46.243Z,27.03
2023-05-10T09:10:45.268Z,27.11
2023-05-10T09:11:45.272Z,27.18
2023-05-10T09:12:45.297Z,27.24
2023-05-10T09:13:45.274Z,27.30
2023-05-10T09:14:46.228Z,27.37
2023-05-10T09:15:45.607Z,27.43
2023-05-10T09:16:45.258Z,27.50
2023-05-10T09:17:45.233Z,27.57
2023-05-10T09:18:45.225Z,27.65
2023-05-10T09:19:45.198Z,27.73
2023-05-10T09:20:46.106Z,27.81
2023-05-10T09:21:45.142Z,27.90
2023-05-10T09:22:45.139Z,27.98
2023-05-10T09:23:47.364Z,28.06
2023-05-10T09:24:45.113Z,28.13
2023-05-10T09:25:46.044Z,28.20
2023-05-10T09:26:45.071Z,28.28
2023-05-10T09:27:45.114Z,28.35
2023-05-10T09:28:45.031Z,28.43
2023-05-10T09:29:45.059Z,28.51
2023-05-10T09:30:45.363Z,28.59
2023-05-10T09:31:46.003Z,28.66
2023-05-10T09:32:45.041Z,28.73
2023-05-10T09:33:44.977Z,28.81
2023-05-10T09:34:45.084Z,28.89
2023-05-10T09:35:45.046Z,28.97
2023-05-10T09:36:44.932Z,29.05
2023-05-10T09:37:45.932Z,29.14
2023-05-10T09:38:44.941Z,29.23
2023-05-10T09:39:44.924Z,29.33
2023-05-10T09:40:44.889Z,29.42
2023-05-10T09:41:44.956Z,29.51
2023-05-10T09:42:44.877Z,29.59
2023-05-10T09:43:45.800Z,29.66
2023-05-10T09:44:44.858Z,29.74
2023-05-10T09:45:44.840Z,29.81
2023-05-10T09:46:44.858Z,29.88
2023-05-10T09:47:44.892Z,29.94
2023-05-10T09:48:46.744Z,30.01
2023-05-10T09:49:44.816Z,30.08
2023-05-10T09:50:44.772Z,30.16
2023-05-10T09:51:44.767Z,30.24
2023-05-10T09:52:44.742Z,30.32
2023-05-10T09:53:45.672Z,30.40
2023-05-10T09:54:44.724Z,30.48
2023-05-10T09:55:44.729Z,30.54
2023-05-10T09:56:44.725Z,30.62
2023-05-10T09:57:44.709Z,30.69
2023-05-10T09:58:44.682Z,30.78
2023-05-10T09:59:45.570Z,30.86
2023-05-10T10:00:44.694Z,30.94
2023-05-10T10:01:44.744Z,31.02
2023-05-10T10:02:45.308Z,31.12
2023-05-10T10:03:44.774Z,31.22
2023-05-10T10:04:44.640Z,31.32
2023-05-10T10:05:45.576Z,31.42
2023-05-10T10:06:44.564Z,31.49
2023-05-10T10:07:44.577Z,31.53
2023-05-10T10:08:44.602Z,31.55
2023-05-10T10:09:44.550Z,31.58
2023-05-10T10:10:44.530Z,31.62
2023-05-10T10:11:45.496Z,31.68
2023-05-10T10:12:44.848Z,31.74
2023-05-10T10:13:44.541Z,31.80
2023-05-10T10:14:44.546Z,31.87
2023-05-10T10:15:44.498Z,31.94
2023-05-10T10:16:59.577Z,32.01
2023-05-10T10:17:45.982Z,32.09
2023-05-10T10:18:44.469Z,32.17
2023-05-10T10:19:44.418Z,32.27
2023-05-10T10:20:44.420Z,32.37
2023-05-10T10:21:44.399Z,32.49
2023-05-10T10:22:45.426Z,32.62
2023-05-10T10:23:44.363Z,32.75
2023-05-10T10:24:44.484Z,32.88
2023-05-10T10:25:44.329Z,32.99
2023-05-10T10:26:44.398Z,33.10
2023-05-10T10:27:45.251Z,33.23
2023-05-10T10:28:44.989Z,33.40
2023-05-10T10:29:44.313Z,33.61
2023-05-10T10:30:44.262Z,33.87
2023-05-10T10:31:44.382Z,34.19
2023-05-10T10:32:44.388Z,34.57
2023-05-10T10:33:46.881Z,35.03
2023-05-10T10:34:44.231Z,35.56
2023-05-10T10:35:44.185Z,36.17
2023-05-10T10:36:44.244Z,36.86
2023-05-10T10:37:44.192Z,37.63
2023-05-10T10:38:44.222Z,38.58
2023-05-10T10:39:45.127Z,39.87
2023-05-10T10:40:44.168Z,41.57
2023-05-10T10:41:44.183Z,43.55
2023-05-10T10:42:44.138Z,45.63
2023-05-10T10:43:44.125Z,47.68
2023-05-10T10:44:45.032Z,49.61
2023-05-10T10:45:44.116Z,51.38
2023-05-10T10:46:44.107Z,52.97
2023-05-10T10:47:44.193Z,54.36
2023-05-10T10:48:44.038Z,55.56
2023-05-10T10:49:44.046Z,56.62
2023-05-10T10:50:44.965Z,57.63
2023-05-10T10:51:44.035Z,58.58
2023-05-10T10:52:44.076Z,59.40
2023-05-10T10:53:44.001Z,60.14
2023-05-10T10:54:44.066Z,60.85
2023-05-10T10:55:43.982Z,61.55
2023-05-10T10:56:44.894Z,62.26
2023-05-10T10:57:43.977Z,62.94
2023-05-10T10:58:43.990Z,63.58
2023-05-10T10:59:44.131Z,64.19
2023-05-10T11:00:43.975Z,64.78
2023-05-10T11:01:44.841Z,65.34
2023-05-10T11:02:43.955Z,65.90
2023-05-10T11:03:43.913Z,66.44
2023-05-10T11:04:43.974Z,66.96
2023-05-10T11:05:43.959Z,67.43
2023-05-10T11:06:43.892Z,67.84
2023-05-10T11:07:44.822Z,68.20
2023-05-10T11:08:43.901Z,68.53
2023-05-10T11:09:43.836Z,68.80
2023-05-10T11:10:43.896Z,69.02
2023-05-10T11:11:43.952Z,69.23
2023-05-10T11:12:44.749Z,69.41
2023-05-10T11:13:43.850Z,69.58
2023-05-10T11:14:43.886Z,69.77
2023-05-10T11:15:43.814Z,69.99
2023-05-10T11:16:43.883Z,70.25
2023-05-10T11:17:44.873Z,70.56
2023-05-10T11:18:43.798Z,70.87
2023-05-10T11:19:44.430Z,71.17
2023-05-10T11:20:43.806Z,71.45
2023-05-10T11:21:43.789Z,71.73
2023-05-10T11:22:44.735Z,72.00
2023-05-10T11:23:43.703Z,72.26
2023-05-10T11:24:43.750Z,72.48
2023-05-10T11:25:43.716Z,72.70
2023-05-10T11:26:43.732Z,72.93
2023-05-10T11:27:44.614Z,73.17
2023-05-10T11:28:43.632Z,73.39
2023-05-10T11:29:43.614Z,73.58
2023-05-10T11:30:43.654Z,73.75
2023-05-10T11:31:43.657Z,73.92
2023-05-10T11:32:43.680Z,74.13
2023-05-10T11:33:44.564Z,74.36
2023-05-10T11:34:43.592Z,74.60
2023-05-10T11:35:43.920Z,74.86
2023-05-10T11:36:43.603Z,75.13
2023-05-10T11:37:43.545Z,75.42
2023-05-10T11:38:43.613Z,75.68
2023-05-10T11:39:44.488Z,75.90
2023-05-10T11:40:43.594Z,76.11
2023-05-10T11:41:43.530Z,76.33
2023-05-10T11:42:43.539Z,76.56
2023-05-10T11:43:43.525Z,76.74
2023-05-10T11:44:44.576Z,76.87
2023-05-10T11:45:43.509Z,76.98
2023-05-10T11:46:43.556Z,77.08
2023-05-10T11:47:43.497Z,77.18
2023-05-10T11:48:43.454Z,77.20
2023-05-10T11:49:44.426Z,77.16
2023-05-10T11:50:43.492Z,77.11
2023-05-10T11:51:43.463Z,77.09
2023-05-10T11:52:43.461Z,77.11
2023-05-10T11:53:43.472Z,77.15
2023-05-10T11:54:43.586Z,77.19
2023-05-10T11:55:44.363Z,77.21
2023-05-10T11:56:43.466Z,77.23
2023-05-10T11:57:43.432Z,77.24
2023-05-10T11:58:43.391Z,77.25
2023-05-10T11:59:43.458Z,77.25
2023-05-10T12:00:44.297Z,77.27
2023-05-10T12:01:43.335Z,77.28
2023-05-10T12:02:43.468Z,77.28
2023-05-10T12:03:43.430Z,77.30
2023-05-10T12:04:43.446Z,77.37
2023-05-10T12:05:43.301Z,77.48
2023-05-10T12:06:44.248Z,77.61
2023-05-10T12:07:43.329Z,77.76
2023-05-10T12:08:43.352Z,77.87
2023-05-10T12:09:44.328Z,77.93
2023-05-10T12:10:43.289Z,77.95
2023-05-10T12:11:44.720Z,77.94
2023-05-10T12:12:43.280Z,77.92
2023-05-10T12:13:43.246Z,77.88
2023-05-10T12:14:43.236Z,77.87
2023-05-10T12:15:43.262Z,77.90
2023-05-10T12:16:44.233Z,77.94
2023-05-10T12:17:43.532Z,77.98
2023-05-10T12:18:43.231Z,78.00
2023-05-10T12:19:43.177Z,78.03
2023-05-10T12:20:43.190Z,78.07
2023-05-10T12:21:44.122Z,78.14
2023-05-10T12:22:43.164Z,78.25
2023-05-10T12:23:43.153Z,78.36
2023-05-10T12:24:43.135Z,78.45
2023-05-10T12:25:43.166Z,78.53
2023-05-10T12:26:44.080Z,78.61
2023-05-10T12:27:43.106Z,78.64
2023-05-10T12:28:43.116Z,78.62
2023-05-10T12:29:43.149Z,78.59
2023-05-10T12:30:43.107Z,78.57
2023-05-10T12:31:43.141Z,78.55
2023-05-10T12:32:44.035Z,78.54
2023-05-10T12:33:43.052Z,78.52
2023-05-10T12:34:43.096Z,78.48
2023-05-10T12:35:43.210Z,78.42
2023-05-10T12:36:43.037Z,78.38
2023-05-10T12:37:43.069Z,78.37
2023-05-10T12:38:44.037Z,78.40
2023-05-10T12:39:43.062Z,78.45
2023-05-10T12:40:43.190Z,78.51
2023-05-10T12:41:43.694Z,78.56
2023-05-10T12:42:43.136Z,78.59
2023-05-10T12:43:43.019Z,78.60
2023-05-10T12:44:43.908Z,78.59
2023-05-10T12:45:43.049Z,78.59
2023-05-10T12:46:42.953Z,78.64
2023-05-10T12:47:44.153Z,78.73
2023-05-10T12:48:43.001Z,78.84
2023-05-10T12:49:43.868Z,78.96
2023-05-10T12:50:42.939Z,79.04
2023-05-10T12:51:42.960Z,79.05
2023-05-10T12:52:42.911Z,78.99
2023-05-10T12:53:45.622Z,78.91